Time;durP1;ratioP1;P1;durP2;ratioP2;P2;SDS_P1;SDS_P2;PMS_P1;PMS_P2;Temp;Humidity;BMP_temperature;BMP_pressure;BME280_temperature;BME280_humidity;BME280_pressure;Samples;Min_cycle;Max_cycle;Signal;HPM_P1;HPM_P2
2022/11/21 00:01:13;;;;;;;42.15;22.25;;;2.00;99.90;;;;;;4667561;28;10000568;-75
2022/11/21 00:03:39;;;;;;;38.72;21.10;;;2.00;99.90;;;;;;5014964;28;20477;-76
2022/11/21 00:06:05;;;;;;;41.80;21.60;;;2.00;99.90;;;;;;5018101;28;20134;-75
2022/11/21 00:08:30;;;;;;;42.55;21.88;;;2.10;99.90;;;;;;5013374;28;20053;-76
2022/11/21 00:10:58;;;;;;;46.67;22.40;;;2.10;99.90;;;;;;5008830;28;20425;-75
2022/11/21 00:13:24;;;;;;;46.95;23.33;;;2.10;99.90;;;;;;5015776;28;20028;-75
2022/11/21 00:15:50;;;;;;;42.75;21.90;;;2.20;99.90;;;;;;5008535;28;20169;-75
2022/11/21 00:18:16;;;;;;;44.05;22.92;;;2.20;99.90;;;;;;5003391;28;20013;-75
2022/11/21 00:20:42;;;;;;;43.55;22.88;;;2.20;99.90;;;;;;5008138;28;20022;-75
2022/11/21 00:23:08;;;;;;;40.17;21.60;;;2.20;99.90;;;;;;5010018;28;20419;-74
2022/11/21 00:25:34;;;;;;;44.47;22.08;;;2.20;99.90;;;;;;5014601;28;20079;-74
2022/11/21 00:27:59;;;;;;;42.50;22.10;;;2.20;99.90;;;;;;5012672;28;20026;-75
2022/11/21 00:30:25;;;;;;;45.92;23.83;;;2.20;99.90;;;;;;5013606;28;20175;-74
2022/11/21 00:32:51;;;;;;;42.60;22.63;;;2.20;99.90;;;;;;5007014;28;20512;-75
2022/11/21 00:35:17;;;;;;;40.88;21.92;;;2.10;99.90;;;;;;5006420;28;20053;-74
2022/11/21 00:37:42;;;;;;;47.92;24.90;;;2.10;99.90;;;;;;5005419;28;20105;-75
2022/11/21 00:40:09;;;;;;;48.85;25.55;;;2.10;99.90;;;;;;5008948;28;20623;-74
2022/11/21 00:42:34;;;;;;;52.40;26.08;;;2.00;99.90;;;;;;5012802;28;20668;-74
2022/11/21 00:45:00;;;;;;;54.05;25.73;;;2.00;99.90;;;;;;5001790;28;20018;-74
2022/11/21 00:47:26;;;;;;;49.95;25.50;;;2.00;99.90;;;;;;5007001;28;20018;-75
2022/11/21 00:49:51;;;;;;;48.38;23.52;;;2.00;99.90;;;;;;5004801;28;20032;-75
2022/11/21 00:52:17;;;;;;;47.58;24.33;;;2.00;99.90;;;;;;5005035;28;20033;-75
2022/11/21 00:54:43;;;;;;;52.17;24.52;;;2.00;99.90;;;;;;5006584;28;20579;-75
2022/11/21 00:57:08;;;;;;;40.60;22.38;;;2.00;99.90;;;;;;5007404;28;20061;-75
2022/11/21 00:59:34;;;;;;;45.13;22.77;;;2.00;99.90;;;;;;5006495;28;20040;-75
2022/11/21 01:01:59;;;;;;;41.22;21.50;;;2.10;99.90;;;;;;5004306;28;20053;-74
2022/11/21 01:04:29;;;;;;;40.72;21.27;;;2.10;99.90;;;;;;5010295;28;20098;-75
2022/11/21 01:06:54;;;;;;;35.45;19.85;;;2.10;99.90;;;;;;5002024;28;20033;-75
2022/11/21 01:09:20;;;;;;;35.63;19.55;;;2.10;99.90;;;;;;4999285;28;20010;-74
2022/11/21 01:11:45;;;;;;;38.22;20.98;;;2.10;99.90;;;;;;5005402;28;20014;-75
2022/11/21 01:14:11;;;;;;;35.25;19.75;;;2.10;99.90;;;;;;5007727;28;20026;-75
2022/11/21 01:16:37;;;;;;;33.85;19.42;;;2.10;99.90;;;;;;5000456;28;20022;-75
2022/11/21 01:19:02;;;;;;;31.42;16.75;;;2.10;99.90;;;;;;5007236;28;20056;-74
2022/11/21 01:21:30;;;;;;;27.42;14.82;;;2.20;99.90;;;;;;5007409;28;20033;-75
2022/11/21 01:23:58;;;;;;;24.92;14.20;;;2.20;99.90;;;;;;5008603;28;20025;-75
2022/11/21 01:26:27;;;;;;;25.08;14.57;;;2.30;99.90;;;;;;5005166;28;20021;-74
2022/11/21 01:28:52;;;;;;;24.27;14.27;;;2.30;99.90;;;;;;5000391;28;20100;-74
2022/11/21 01:31:24;;;;;;;22.58;13.60;;;2.30;99.90;;;;;;5003898;28;20211;-75
2022/11/21 01:33:49;;;;;;;23.10;12.88;;;2.40;99.90;;;;;;5006033;28;20017;-75
2022/11/21 01:36:26;;;;;;;18.77;11.90;;;2.40;99.90;;;;;;5004941;28;20248;-74
2022/11/21 01:38:56;;;;;;;18.17;10.73;;;2.30;99.90;;;;;;4998154;28;20049;-74
2022/11/21 01:41:25;;;;;;;16.83;10.25;;;2.40;99.90;;;;;;5003830;28;20149;-74
2022/11/21 01:43:51;;;;;;;15.85;9.73;;;2.40;99.90;;;;;;5004491;28;20033;-74
2022/11/21 01:46:21;;;;;;;15.63;9.52;;;2.40;99.90;;;;;;5005574;28;20473;-74
2022/11/21 01:48:53;;;;;;;15.25;9.85;;;2.40;99.90;;;;;;5012349;28;20115;-74
2022/11/21 01:51:31;;;;;;;15.75;9.45;;;2.40;99.90;;;;;;5007211;28;20026;-74
2022/11/21 01:53:59;;;;;;;14.40;9.38;;;2.40;99.90;;;;;;5008385;28;20045;-74
2022/11/21 01:56:27;;;;;;;11.73;8.13;;;2.40;99.90;;;;;;5009552;28;20091;-74
2022/11/21 01:58:57;;;;;;;11.60;7.80;;;2.30;99.90;;;;;;5011687;28;20875;-74
2022/11/21 02:01:23;;;;;;;8.75;6.57;;;2.30;99.90;;;;;;5009033;28;20033;-74
2022/11/21 02:03:51;;;;;;;7.13;5.70;;;2.30;99.90;;;;;;5012739;28;20078;-74
2022/11/21 02:06:17;;;;;;;6.80;5.22;;;2.20;99.90;;;;;;5014787;28;20042;-74
2022/11/21 02:08:44;;;;;;;7.25;5.00;;;2.20;99.90;;;;;;5013015;28;20107;-74
2022/11/21 02:11:20;;;;;;;4.90;4.10;;;2.20;99.90;;;;;;5012431;28;20037;-74
2022/11/21 02:13:45;;;;;;;5.28;4.40;;;2.20;99.90;;;;;;5016625;28;20033;-74
2022/11/21 02:16:11;;;;;;;4.57;3.75;;;2.10;99.90;;;;;;5013890;28;20445;-74
2022/11/21 02:18:37;;;;;;;4.57;3.70;;;2.10;99.90;;;;;;5011806;28;20033;-74
2022/11/21 02:21:08;;;;;;;3.88;3.30;;;2.00;99.90;;;;;;5013517;28;20052;-74
2022/11/21 02:23:47;;;;;;;3.97;3.33;;;2.00;99.90;;;;;;5007433;28;20095;-74
2022/11/21 02:26:12;;;;;;;4.28;3.35;;;2.00;99.90;;;;;;5008686;28;20789;-74
2022/11/21 02:28:38;;;;;;;4.00;3.42;;;1.90;99.90;;;;;;5012018;28;20029;-74
2022/11/21 02:31:04;;;;;;;4.13;3.38;;;1.90;99.90;;;;;;5008428;28;20044;-74
2022/11/21 02:33:29;;;;;;;3.75;3.00;;;1.90;99.90;;;;;;5008293;28;20602;-74
2022/11/21 02:35:59;;;;;;;4.57;3.28;;;1.90;99.90;;;;;;5006286;28;20072;-74
2022/11/21 02:38:32;;;;;;;4.15;3.50;;;1.90;99.90;;;;;;5012397;28;20036;-74
2022/11/21 02:41:07;;;;;;;4.97;3.95;;;1.80;99.90;;;;;;5011459;28;21057;-74
2022/11/21 02:43:49;;;;;;;6.18;4.32;;;1.90;99.90;;;;;;5004307;28;21061;-74
2022/11/21 02:46:15;;;;;;;5.47;4.40;;;1.80;99.90;;;;;;5011045;28;20034;-74
2022/11/21 02:48:40;;;;;;;5.47;4.80;;;1.80;99.90;;;;;;5010447;28;20024;-74
2022/11/21 02:51:06;;;;;;;5.57;4.57;;;1.80;99.90;;;;;;5007742;28;20444;-74
2022/11/21 02:53:32;;;;;;;7.30;5.00;;;1.80;99.90;;;;;;5004875;28;20436;-73
2022/11/21 02:55:57;;;;;;;5.38;4.40;;;1.80;99.90;;;;;;5012075;28;20022;-74
2022/11/21 02:58:23;;;;;;;5.90;4.63;;;1.80;99.90;;;;;;5011425;28;20037;-74
2022/11/21 03:00:49;;;;;;;5.90;4.85;;;1.80;99.90;;;;;;5014823;28;20713;-74
2022/11/21 03:03:14;;;;;;;5.13;4.35;;;1.80;99.90;;;;;;5015561;28;20032;-74
2022/11/21 03:05:40;;;;;;;5.47;4.63;;;1.80;99.90;;;;;;5013903;28;20057;-74
2022/11/21 03:08:06;;;;;;;6.25;4.70;;;1.80;99.90;;;;;;5013049;28;20033;-74
2022/11/21 03:10:33;;;;;;;7.38;5.95;;;1.90;99.90;;;;;;5009915;28;20037;-74
2022/11/21 03:13:02;;;;;;;7.35;5.75;;;1.80;99.90;;;;;;5015433;28;20389;-74
2022/11/21 03:15:30;;;;;;;7.00;5.55;;;1.80;99.90;;;;;;5009345;28;20083;-74
2022/11/21 03:17:56;;;;;;;7.07;5.68;;;1.80;99.90;;;;;;5011068;28;20037;-74
2022/11/21 03:20:22;;;;;;;6.88;5.72;;;1.90;99.90;;;;;;5011838;28;20087;-74
2022/11/21 03:22:49;;;;;;;8.13;6.45;;;1.90;99.90;;;;;;5008748;28;20027;-74
2022/11/21 03:25:15;;;;;;;7.53;5.65;;;2.00;99.90;;;;;;5008287;28;20088;-74
2022/11/21 03:27:40;;;;;;;7.85;6.00;;;2.00;99.90;;;;;;5008548;28;20486;-74
2022/11/21 03:30:07;;;;;;;8.07;5.90;;;2.10;99.90;;;;;;5004960;28;20041;-75
2022/11/21 03:32:32;;;;;;;6.68;5.35;;;2.10;99.90;;;;;;5013290;28;20506;-74
2022/11/21 03:34:58;;;;;;;6.57;5.07;;;2.10;99.90;;;;;;5013353;28;20045;-74
2022/11/21 03:37:23;;;;;;;6.35;5.25;;;2.10;99.90;;;;;;5005952;28;20030;-74
2022/11/21 03:39:49;;;;;;;6.32;5.05;;;2.10;99.90;;;;;;5007486;28;20116;-74
2022/11/21 03:42:14;;;;;;;6.50;5.05;;;2.10;99.90;;;;;;5004688;28;20103;-74
2022/11/21 03:44:41;;;;;;;5.05;4.28;;;2.20;99.90;;;;;;5006735;28;20013;-74
2022/11/21 03:47:06;;;;;;;6.05;4.75;;;2.10;99.90;;;;;;5010636;28;20048;-74
2022/11/21 03:49:32;;;;;;;7.07;5.38;;;2.20;99.90;;;;;;5008387;28;20529;-74
2022/11/21 03:51:57;;;;;;;6.18;5.00;;;2.20;99.90;;;;;;5010394;28;20049;-75
2022/11/21 03:54:23;;;;;;;7.50;6.07;;;2.20;99.90;;;;;;5014659;28;20017;-75
2022/11/21 03:56:48;;;;;;;8.02;5.82;;;2.20;99.90;;;;;;5008361;28;20044;-75
2022/11/21 03:59:14;;;;;;;8.05;6.07;;;2.20;99.90;;;;;;5009968;28;20223;-75
2022/11/21 04:01:40;;;;;;;7.90;6.50;;;2.20;99.90;;;;;;5010625;28;20034;-75
2022/11/21 04:04:05;;;;;;;8.57;6.57;;;2.20;99.90;;;;;;5006267;28;20521;-75
2022/11/21 04:06:31;;;;;;;9.85;7.35;;;2.10;99.90;;;;;;5014343;28;20035;-74
2022/11/21 04:08:57;;;;;;;10.25;7.63;;;2.10;99.90;;;;;;5008226;28;20549;-74
2022/11/21 04:11:23;;;;;;;11.60;8.50;;;2.00;99.90;;;;;;5008884;28;20029;-74
2022/11/21 04:13:52;;;;;;;10.73;7.93;;;1.90;99.90;;;;;;5016907;28;20485;-74
2022/11/21 04:16:18;;;;;;;12.80;9.25;;;1.90;99.90;;;;;;5007491;28;20033;-74
2022/11/21 04:18:44;;;;;;;12.90;9.32;;;1.90;99.90;;;;;;5007472;28;20052;-74
2022/11/21 04:21:09;;;;;;;13.15;9.18;;;1.90;99.90;;;;;;5005492;28;20046;-74
2022/11/21 04:23:35;;;;;;;12.88;9.07;;;1.90;99.90;;;;;;5009818;28;20462;-74
2022/11/21 04:26:01;;;;;;;13.32;9.65;;;1.90;99.90;;;;;;5013462;28;20037;-74
2022/11/21 04:28:26;;;;;;;11.93;8.65;;;1.90;99.90;;;;;;5006489;28;20033;-74
2022/11/21 04:30:52;;;;;;;11.50;8.20;;;2.00;99.90;;;;;;5003677;28;20045;-74
2022/11/21 04:33:18;;;;;;;11.20;7.65;;;2.00;99.90;;;;;;5018650;28;20037;-74
2022/11/21 04:35:45;;;;;;;12.82;8.13;;;2.00;99.90;;;;;;5009162;28;20037;-74
2022/11/21 04:38:12;;;;;;;10.70;7.07;;;2.00;99.90;;;;;;5015480;28;20025;-74
2022/11/21 04:40:38;;;;;;;8.55;6.88;;;2.10;99.90;;;;;;5014908;28;20035;-75
2022/11/21 04:43:04;;;;;;;9.20;6.72;;;2.10;99.90;;;;;;5015156;28;20379;-74
2022/11/21 04:45:30;;;;;;;8.65;6.85;;;2.10;99.90;;;;;;5015003;28;20037;-74
2022/11/21 04:47:56;;;;;;;8.65;6.60;;;2.10;99.90;;;;;;5006953;28;20100;-74
2022/11/21 04:50:22;;;;;;;8.45;6.80;;;2.00;99.90;;;;;;5008612;28;20025;-75
2022/11/21 04:52:53;;;;;;;8.90;6.80;;;2.00;99.90;;;;;;5001146;28;20029;-74
2022/11/21 04:55:20;;;;;;;8.52;6.43;;;1.90;99.90;;;;;;5009386;28;20037;-75
2022/11/21 04:57:46;;;;;;;8.05;6.53;;;1.90;99.90;;;;;;5017245;28;20038;-75
2022/11/21 05:00:13;;;;;;;9.63;6.78;;;1.90;99.90;;;;;;5011776;28;20048;-74
2022/11/21 05:02:39;;;;;;;9.18;6.60;;;1.90;99.90;;;;;;5013370;28;20029;-74
2022/11/21 05:05:05;;;;;;;8.45;6.75;;;1.90;99.90;;;;;;5010208;28;20635;-75
2022/11/21 05:07:31;;;;;;;8.13;6.40;;;1.90;99.90;;;;;;5010812;28;20072;-74
2022/11/21 05:09:56;;;;;;;8.68;6.57;;;1.90;99.90;;;;;;5003882;28;20053;-74
2022/11/21 05:15:27;;;;;;;8.13;6.50;;;1.90;99.90;;;;;;5010449;28;20033;-74
2022/11/21 05:17:52;;;;;;;8.35;6.82;;;1.80;99.90;;;;;;5010120;28;20538;-75
2022/11/21 05:20:18;;;;;;;9.25;6.95;;;1.80;99.90;;;;;;5008685;28;20042;-74
2022/11/21 05:22:48;;;;;;;7.93;6.30;;;1.80;99.90;;;;;;5009392;28;20056;-74
2022/11/21 05:25:14;;;;;;;9.30;7.38;;;1.80;99.90;;;;;;5009163;28;20030;-74
2022/11/21 05:27:39;;;;;;;9.27;6.63;;;1.80;99.90;;;;;;5006086;28;20033;-74
2022/11/21 05:30:05;;;;;;;8.50;6.72;;;1.80;99.90;;;;;;5007751;28;20069;-74
2022/11/21 05:32:31;;;;;;;9.07;6.75;;;1.90;99.90;;;;;;5009334;28;20029;-74
2022/11/21 05:34:57;;;;;;;9.15;7.25;;;1.90;99.90;;;;;;5019590;28;20041;-74
2022/11/21 05:37:22;;;;;;;8.93;6.70;;;2.00;99.90;;;;;;5018252;28;20557;-74
2022/11/21 05:39:48;;;;;;;8.52;6.82;;;1.90;99.90;;;;;;5016037;28;20052;-74
2022/11/21 05:42:13;;;;;;;8.82;6.65;;;1.90;99.90;;;;;;5013900;28;20116;-74
2022/11/21 05:44:39;;;;;;;9.75;7.32;;;1.90;99.90;;;;;;5015443;28;20077;-74
2022/11/21 05:47:05;;;;;;;12.38;8.23;;;1.90;99.90;;;;;;5014071;28;20473;-74
2022/11/21 05:49:30;;;;;;;10.23;7.70;;;1.80;99.90;;;;;;5008764;28;20061;-74
2022/11/21 05:51:56;;;;;;;10.30;7.80;;;1.80;99.90;;;;;;5019603;28;20535;-74
2022/11/21 05:54:21;;;;;;;9.10;7.32;;;1.80;99.90;;;;;;5008249;28;20025;-74
2022/11/21 05:56:47;;;;;;;9.13;7.18;;;1.80;99.90;;;;;;5010242;28;20397;-75
2022/11/21 05:59:12;;;;;;;10.20;7.38;;;1.80;99.90;;;;;;5009135;28;20465;-74
2022/11/21 06:04:22;;;;;;;9.27;7.38;;;1.70;99.90;;;;;;5011081;28;20125;-74
2022/11/21 06:06:48;;;;;;;10.90;7.78;;;1.70;99.90;;;;;;5021160;28;20112;-75
2022/11/21 06:09:13;;;;;;;10.48;7.53;;;1.70;99.90;;;;;;5007753;28;20466;-74
2022/11/21 06:11:39;;;;;;;9.57;7.53;;;1.80;99.90;;;;;;5014837;28;20132;-74
2022/11/21 06:14:05;;;;;;;10.55;7.45;;;1.80;99.90;;;;;;5008728;28;20488;-75
2022/11/21 06:16:31;;;;;;;9.43;6.97;;;1.90;99.90;;;;;;5013393;28;20036;-75
2022/11/21 06:18:56;;;;;;;8.57;6.55;;;1.90;99.90;;;;;;5011708;28;20466;-75
2022/11/21 06:21:24;;;;;;;9.02;6.43;;;1.90;99.90;;;;;;5008257;28;20041;-75
2022/11/21 06:23:52;;;;;;;8.13;6.72;;;1.90;99.90;;;;;;5005027;28;20116;-74
2022/11/21 06:26:20;;;;;;;8.13;6.45;;;1.90;99.90;;;;;;5011272;28;20464;-75
2022/11/21 06:28:46;;;;;;;7.38;5.82;;;1.90;99.90;;;;;;5018543;28;20060;-75
2022/11/21 06:31:19;;;;;;;7.88;5.80;;;1.90;99.90;;;;;;5006516;28;20789;-75
2022/11/21 06:33:46;;;;;;;7.43;5.82;;;1.90;99.90;;;;;;5009072;28;20055;-74
2022/11/21 06:36:16;;;;;;;7.75;5.70;;;1.80;99.90;;;;;;5013638;28;20040;-74
2022/11/21 06:38:42;;;;;;;7.22;5.85;;;1.90;99.90;;;;;;5008854;28;20155;-74
2022/11/21 06:41:18;;;;;;;9.95;6.32;;;1.90;99.90;;;;;;5008781;28;20188;-74
2022/11/21 06:43:44;;;;;;;8.25;6.55;;;1.90;99.90;;;;;;5011146;28;20576;-74
2022/11/21 06:46:10;;;;;;;9.90;7.47;;;1.80;99.90;;;;;;5002800;28;20033;-74
2022/11/21 06:48:37;;;;;;;9.80;6.65;;;1.80;99.90;;;;;;5017660;28;20029;-74
2022/11/21 06:51:04;;;;;;;12.23;8.55;;;1.80;99.90;;;;;;5010116;28;20044;-75
2022/11/21 06:53:30;;;;;;;12.95;9.05;;;1.80;99.90;;;;;;5015416;28;20034;-74
2022/11/21 06:55:58;;;;;;;13.43;9.73;;;1.80;99.90;;;;;;5014807;28;20040;-75
2022/11/21 06:58:24;;;;;;;14.60;10.48;;;1.80;99.90;;;;;;5010140;28;20953;-75
2022/11/21 07:00:50;;;;;;;17.88;11.25;;;1.80;99.90;;;;;;5012505;28;20099;-75
2022/11/21 07:03:16;;;;;;;12.93;9.65;;;1.70;99.90;;;;;;5011748;28;20649;-75
2022/11/21 07:05:41;;;;;;;15.00;10.13;;;1.70;99.90;;;;;;5010203;28;20611;-74
2022/11/21 07:08:07;;;;;;;14.85;10.10;;;1.70;99.90;;;;;;5011129;28;20124;-75
2022/11/21 07:10:32;;;;;;;13.93;9.20;;;1.80;99.90;;;;;;5019435;28;20031;-75
2022/11/21 07:15:44;;;;;;;11.25;8.50;;;1.90;99.90;;;;;;5013905;28;20112;-74
2022/11/21 07:18:11;;;;;;;11.40;8.13;;;1.90;99.90;;;;;;5005244;28;20026;-75
2022/11/21 07:20:36;;;;;;;10.55;7.72;;;2.00;99.90;;;;;;5009007;28;20061;-75
2022/11/21 07:23:02;;;;;;;10.13;7.53;;;2.00;99.90;;;;;;5012757;28;20071;-74
2022/11/21 07:25:28;;;;;;;10.23;7.40;;;2.00;99.90;;;;;;5009002;28;20026;-75
2022/11/21 07:27:59;;;;;;;9.65;7.47;;;2.00;99.90;;;;;;5008202;28;20087;-76
2022/11/21 07:30:25;;;;;;;9.45;7.10;;;2.00;99.90;;;;;;5009479;28;20041;-76
2022/11/21 07:32:58;;;;;;;9.57;7.70;;;2.00;99.90;;;;;;5008071;28;20095;-76
2022/11/21 07:35:24;;;;;;;9.88;7.50;;;2.00;99.90;;;;;;5015881;28;20049;-75
2022/11/21 07:37:50;;;;;;;7.97;6.65;;;2.10;99.90;;;;;;5003309;28;20034;-76
2022/11/21 07:40:16;;;;;;;9.35;6.70;;;2.10;99.90;;;;;;5014180;28;20053;-76
2022/11/21 07:42:42;;;;;;;8.02;6.32;;;2.10;99.90;;;;;;5004139;28;20029;-76
2022/11/21 07:45:08;;;;;;;8.77;7.00;;;2.10;99.90;;;;;;5013533;28;20029;-75
2022/11/21 07:47:34;;;;;;;8.25;6.25;;;2.20;99.90;;;;;;5006143;28;20026;-76
2022/11/21 07:49:59;;;;;;;7.55;6.20;;;2.20;99.90;;;;;;5004687;28;20027;-76
2022/11/21 07:52:25;;;;;;;8.18;6.50;;;2.20;99.90;;;;;;5016932;28;20095;-75
2022/11/21 07:54:51;;;;;;;10.75;7.00;;;2.10;99.90;;;;;;5009274;28;20071;-75
2022/11/21 07:57:17;;;;;;;10.00;6.85;;;2.10;99.90;;;;;;5006943;28;20038;-75
2022/11/21 07:59:43;;;;;;;8.00;6.43;;;2.10;99.90;;;;;;5004505;28;20038;-76
2022/11/21 08:02:19;;;;;;;10.40;7.90;;;2.10;99.90;;;;;;5007449;28;20234;-75
2022/11/21 08:04:46;;;;;;;10.00;7.47;;;2.10;99.90;;;;;;5006089;28;20018;-75
2022/11/21 08:07:16;;;;;;;11.15;8.40;;;2.10;99.90;;;;;;5017334;28;20422;-75
2022/11/21 08:09:42;;;;;;;11.77;8.90;;;2.20;99.90;;;;;;5009004;28;20682;-75
2022/11/21 08:12:08;;;;;;;10.90;8.45;;;2.30;99.90;;;;;;5002636;28;20041;-75
2022/11/21 08:14:34;;;;;;;11.27;8.60;;;2.30;99.90;;;;;;5007422;28;20029;-75
2022/11/21 08:17:01;;;;;;;11.77;8.70;;;2.40;99.90;;;;;;5010079;28;20061;-75
2022/11/21 08:19:27;;;;;;;11.65;8.77;;;2.50;99.90;;;;;;5014091;28;20034;-75
2022/11/21 08:21:52;;;;;;;10.68;8.20;;;2.50;99.90;;;;;;5007016;28;20029;-75
2022/11/21 08:24:18;;;;;;;12.43;8.48;;;2.60;99.90;;;;;;5003595;28;20034;-75
2022/11/21 08:26:44;;;;;;;13.23;9.15;;;2.60;99.90;;;;;;5005516;28;20026;-74
2022/11/21 08:29:16;;;;;;;12.48;9.18;;;2.70;99.90;;;;;;5001589;28;20532;-74
2022/11/21 08:31:42;;;;;;;14.35;10.18;;;2.70;99.90;;;;;;5011119;28;20052;-75
2022/11/21 08:34:09;;;;;;;17.80;11.93;;;2.70;99.90;;;;;;5008075;28;20044;-75
2022/11/21 08:36:35;;;;;;;16.48;11.50;;;2.70;99.90;;;;;;5011193;28;20513;-74
2022/11/21 08:39:01;;;;;;;18.27;12.60;;;2.70;99.90;;;;;;5015554;28;20033;-75
2022/11/21 08:44:11;;;;;;;22.83;13.25;;;2.70;99.90;;;;;;5014825;28;20044;-76
2022/11/21 08:46:37;;;;;;;21.27;14.50;;;2.80;99.90;;;;;;5006608;28;20021;-76
2022/11/21 08:49:03;;;;;;;20.85;14.13;;;2.80;99.90;;;;;;5015660;28;20117;-76
2022/11/21 08:51:29;;;;;;;21.73;14.18;;;2.80;99.90;;;;;;5009134;28;20084;-76
2022/11/21 08:53:55;;;;;;;17.00;12.73;;;2.80;99.90;;;;;;5001947;28;20560;-76
2022/11/21 08:56:21;;;;;;;22.10;15.10;;;2.80;99.90;;;;;;5007152;28;20072;-76
2022/11/21 08:58:47;;;;;;;26.25;15.07;;;2.90;99.90;;;;;;5005399;28;20451;-75
2022/11/21 09:01:13;;;;;;;24.17;14.70;;;2.80;99.90;;;;;;5004638;28;20040;-75
2022/11/21 09:03:39;;;;;;;23.02;14.60;;;2.80;99.90;;;;;;5005622;28;20029;-75
2022/11/21 09:06:05;;;;;;;25.35;14.55;;;2.80;99.90;;;;;;5002131;28;20056;-76
2022/11/21 09:08:31;;;;;;;22.02;15.15;;;2.80;99.90;;;;;;5006538;28;20026;-76
2022/11/21 09:10:57;;;;;;;20.55;14.07;;;2.80;99.90;;;;;;5008165;28;20044;-76
2022/11/21 09:13:23;;;;;;;18.52;12.85;;;2.80;99.90;;;;;;5007576;28;20029;-75
2022/11/21 09:18:33;;;;;;;21.58;14.25;;;2.70;99.90;;;;;;5014387;28;20044;-76
2022/11/21 09:20:59;;;;;;;22.10;14.68;;;2.60;99.90;;;;;;5007953;28;20033;-76
2022/11/21 09:23:25;;;;;;;21.67;14.13;;;2.70;99.90;;;;;;5005712;28;20026;-76
2022/11/21 09:25:51;;;;;;;20.65;13.90;;;2.70;99.90;;;;;;5013096;28;20021;-76
2022/11/21 09:28:17;;;;;;;22.58;14.27;;;2.80;99.90;;;;;;5012837;28;20021;-76
2022/11/21 09:30:43;;;;;;;20.45;13.90;;;2.70;99.90;;;;;;5018548;28;20606;-76
2022/11/21 09:33:13;;;;;;;18.92;13.38;;;2.80;99.90;;;;;;5006291;28;20045;-76
2022/11/21 09:35:39;;;;;;;19.60;13.77;;;2.80;99.90;;;;;;5004334;28;20535;-76
2022/11/21 09:38:05;;;;;;;17.98;12.30;;;2.90;99.90;;;;;;5003581;28;20042;-77
2022/11/21 09:40:33;;;;;;;18.30;13.05;;;3.00;99.90;;;;;;5009771;28;20077;-76
2022/11/21 09:43:34;;;;;;;20.15;13.32;;;2.90;99.90;;;;;;5014864;28;20022;-77
2022/11/21 09:46:15;;;;;;;20.83;13.18;;;2.90;99.90;;;;;;5003460;28;20033;-76
2022/11/21 09:48:49;;;;;;;18.38;12.52;;;3.00;99.90;;;;;;5007578;28;20064;-76
2022/11/21 09:51:16;;;;;;;18.85;12.80;;;;;;;;;;5007351;28;20186;-74
2022/11/21 09:53:57;;;;;;;19.67;13.43;;;3.00;99.90;;;;;;5014319;28;20025;-74
2022/11/21 09:56:24;;;;;;;19.20;13.38;;;3.00;99.90;;;;;;5011733;28;20029;-74
2022/11/21 09:59:20;;;;;;;19.05;12.75;;;3.00;99.90;;;;;;5011118;28;20555;-74
2022/11/21 10:01:46;;;;;;;18.58;12.93;;;3.10;99.90;;;;;;5009871;28;20232;-74
2022/11/21 10:04:12;;;;;;;19.25;12.88;;;3.10;99.90;;;;;;5027381;28;20579;-74
2022/11/21 10:06:55;;;;;;;21.38;13.27;;;3.10;99.90;;;;;;5014766;28;20044;-74
2022/11/21 10:09:45;;;;;;;18.95;12.20;;;3.20;99.90;;;;;;5005169;28;20033;-74
2022/11/21 10:12:35;;;;;;;16.35;12.40;;;3.20;99.90;;;;;;5009562;28;20033;-74
2022/11/21 10:15:30;;;;;;;15.55;11.68;;;3.20;99.90;;;;;;5000095;28;20033;-74
2022/11/21 10:18:27;;;;;;;17.92;11.82;;;3.10;99.90;;;;;;5019970;28;20214;-74
2022/11/21 10:21:11;;;;;;;17.45;12.48;;;3.10;99.90;;;;;;5008883;28;20025;-74
2022/11/21 10:23:48;;;;;;;17.42;12.05;;;3.10;99.90;;;;;;5020792;28;20052;-74
2022/11/21 10:26:33;;;;;;;16.50;11.48;;;3.10;99.90;;;;;;5016857;28;20548;-74
2022/11/21 10:29:01;;;;;;;17.25;11.70;;;3.20;99.90;;;;;;5016484;28;20054;-74
2022/11/21 10:31:30;;;;;;;16.35;11.48;;;3.20;99.90;;;;;;5007303;28;20046;-74
2022/11/21 10:33:57;;;;;;;16.92;12.15;;;3.20;99.90;;;;;;5001590;28;20121;-74
2022/11/21 10:36:38;;;;;;;15.27;11.90;;;3.30;99.90;;;;;;5010346;28;20041;-74
2022/11/21 10:39:21;;;;;;;19.33;12.43;;;3.30;99.90;;;;;;5009634;28;20057;-74
2022/11/21 10:42:02;;;;;;;17.85;11.75;;;3.30;99.90;;;;;;5006221;28;20230;-74
2022/11/21 10:47:26;;;;;;;16.00;12.13;;;3.40;99.90;;;;;;5001774;28;20033;-74
2022/11/21 10:49:58;;;;;;;14.50;11.10;;;3.40;99.90;;;;;;5012337;28;20084;-74
2022/11/21 10:52:27;;;;;;;18.05;11.52;;;3.40;99.90;;;;;;5018266;28;20044;-74
2022/11/21 10:55:02;;;;;;;15.35;11.95;;;3.40;99.90;;;;;;5010286;28;20034;-74
2022/11/21 10:57:30;;;;;;;15.23;11.55;;;3.40;99.90;;;;;;5008438;28;20493;-74
2022/11/21 11:00:12;;;;;;;12.82;9.90;;;3.40;99.90;;;;;;5018620;28;20033;-74
2022/11/21 11:03:03;;;;;;;14.80;9.88;;;3.50;99.90;;;;;;5013026;28;20080;-74
2022/11/21 11:05:35;;;;;;;15.85;11.18;;;3.50;99.90;;;;;;5019290;28;20029;-74
2022/11/21 11:08:07;;;;;;;15.27;11.48;;;3.50;99.90;;;;;;5008865;28;20032;-74
2022/11/21 11:10:41;;;;;;;12.18;8.65;;;3.60;99.90;;;;;;5013819;28;20026;-74
2022/11/21 11:16:16;;;;;;;13.95;11.18;;;3.70;99.90;;;;;;5008963;28;20385;-74
2022/11/21 11:19:02;;;;;;;16.58;11.73;;;3.70;99.90;;;;;;5013149;28;20393;-74
2022/11/21 11:21:46;;;;;;;17.65;11.85;;;3.70;99.90;;;;;;5007702;28;20025;-74
2022/11/21 11:24:12;;;;;;;16.15;11.57;;;3.80;99.90;;;;;;5014371;28;20034;-74
2022/11/21 11:26:46;;;;;;;16.77;12.05;;;3.90;99.90;;;;;;5012049;28;20039;-74
2022/11/21 11:29:19;;;;;;;16.30;11.75;;;4.00;99.90;;;;;;5002551;28;20080;-75
2022/11/21 11:31:57;;;;;;;16.52;12.00;;;4.30;99.90;;;;;;5006208;28;20049;-74
2022/11/21 11:34:27;;;;;;;16.55;11.95;;;4.60;99.90;;;;;;5010729;28;20037;-73
2022/11/21 11:37:08;;;;;;;14.85;11.48;;;4.80;99.90;;;;;;5008433;28;20048;-73
2022/11/21 11:39:45;;;;;;;18.95;11.77;;;4.90;99.90;;;;;;5001515;28;20033;-74
2022/11/21 11:48:06;;;;;;;13.35;9.80;;;4.90;99.90;;;;;;5012956;28;20035;-73
2022/11/21 11:50:47;;;;;;;13.98;10.60;;;4.80;99.90;;;;;;5000288;28;20131;-73
2022/11/21 11:53:17;;;;;;;14.30;11.05;;;4.70;99.90;;;;;;5002774;28;20064;-73
2022/11/21 11:55:58;;;;;;;13.00;10.35;;;4.60;99.90;;;;;;5017461;28;20033;-73
2022/11/21 11:58:40;;;;;;;14.77;10.85;;;4.50;99.90;;;;;;5006278;28;20033;-74
2022/11/21 12:01:19;;;;;;;14.68;10.90;;;4.50;99.90;;;;;;5000562;28;20860;-73
2022/11/21 12:03:56;;;;;;;15.82;11.70;;;4.40;99.90;;;;;;5004742;28;20025;-73
2022/11/21 12:06:30;;;;;;;15.15;10.50;;;4.40;99.90;;;;;;5002967;28;20025;-74
2022/11/21 12:09:06;;;;;;;16.30;11.80;;;4.40;99.90;;;;;;4994931;28;20109;-74
2022/11/21 12:18:10;;;;;;;17.80;13.10;;;4.40;99.90;;;;;;5010984;28;20535;-73
2022/11/21 12:20:51;;;;;;;19.40;13.02;;;4.50;99.90;;;;;;5011229;28;20136;-72
2022/11/21 12:23:17;;;;;;;18.20;12.48;;;4.50;99.90;;;;;;5007563;28;20030;-73
2022/11/21 12:26:12;;;;;;;16.15;11.75;;;4.50;99.90;;;;;;5006209;28;20050;-74
2022/11/21 12:28:40;;;;;;;16.92;12.55;;;4.50;99.90;;;;;;5004849;28;20040;-74
2022/11/21 12:31:40;;;;;;;16.45;12.32;;;4.50;99.90;;;;;;5003862;28;20060;-74
2022/11/21 12:34:24;;;;;;;15.20;11.27;;;4.40;99.90;;;;;;5006573;28;20829;-73
2022/11/21 12:37:00;;;;;;;18.20;12.32;;;4.50;99.90;;;;;;5006333;28;20091;-73
2022/11/21 12:39:44;;;;;;;16.60;12.50;;;4.50;99.90;;;;;;5003417;28;20436;-74
2022/11/21 12:42:52;;;;;;;15.25;11.50;;;4.50;99.90;;;;;;5004528;28;20026;-74
2022/11/21 12:45:34;;;;;;;16.23;11.95;;;4.60;99.90;;;;;;5006048;28;20385;-74
2022/11/21 12:54:37;;;;;;;14.85;11.50;;;4.60;99.90;;;;;;5010407;28;20611;-73
2022/11/21 12:57:19;;;;;;;16.70;11.85;;;4.60;99.90;;;;;;5009940;28;20525;-73
2022/11/21 12:59:51;;;;;;;12.87;9.07;;;4.60;99.90;;;;;;4997846;28;20401;-73
2022/11/21 13:02:56;;;;;;;17.67;11.93;;;4.60;99.90;;;;;;5004663;28;20022;-74
2022/11/21 13:05:28;;;;;;;14.02;10.68;;;4.50;99.90;;;;;;5008892;28;20665;-73
2022/11/21 13:08:11;;;;;;;12.32;9.55;;;4.40;99.90;;;;;;5012276;28;20378;-74
2022/11/21 13:10:47;;;;;;;14.60;11.40;;;4.40;99.90;;;;;;5006282;28;20038;-74
2022/11/21 13:13:28;;;;;;;14.02;10.57;;;4.30;99.90;;;;;;4997987;28;20489;-74
2022/11/21 13:16:07;;;;;;;14.15;10.52;;;4.20;99.90;;;;;;5012262;28;20033;-73
2022/11/21 13:18:41;;;;;;;14.88;11.02;;;4.20;99.90;;;;;;5011419;28;20132;-73
2022/11/21 13:21:46;;;;;;;15.05;11.18;;;4.10;99.90;;;;;;5006633;28;20030;-73
2022/11/21 13:24:44;;;;;;;15.98;11.05;;;4.10;99.90;;;;;;5015530;28;20455;-73
2022/11/21 13:27:33;;;;;;;14.55;10.70;;;4.20;99.90;;;;;;5019611;28;20049;-73
2022/11/21 13:30:09;;;;;;;14.90;10.57;;;4.20;99.90;;;;;;5011324;28;20699;-73
2022/11/21 13:32:48;;;;;;;13.30;10.30;;;4.20;99.90;;;;;;5009527;28;20668;-73
2022/11/21 13:35:13;;;;;;;13.05;10.20;;;4.20;99.90;;;;;;5013771;28;20044;-74
2022/11/21 13:37:48;;;;;;;14.05;10.60;;;4.20;99.90;;;;;;5023019;28;20025;-73